sensor_id;sensor_type;location;lat;lon;timestamp;P1;durP1;ratioP1;P2;durP2;ratioP2
70233;SDS011;75981;42.636;23.376;2024-03-08T00:01:14;14.55;;;8.05;;
70233;SDS011;75981;42.636;23.376;2024-03-08T00:03:41;12.35;;;7.03;;
70233;SDS011;75981;42.636;23.376;2024-03-08T00:06:06;12.95;;;7.20;;
70233;SDS011;75981;42.636;23.376;2024-03-08T00:08:32;14.75;;;7.15;;
70233;SDS011;75981;42.636;23.376;2024-03-08T00:10:57;12.63;;;7.45;;
70233;SDS011;75981;42.636;23.376;2024-03-08T00:13:23;15.20;;;7.90;;
70233;SDS011;75981;42.636;23.376;2024-03-08T00:15:50;13.77;;;7.60;;
70233;SDS011;75981;42.636;23.376;2024-03-08T00:18:15;13.07;;;7.40;;
70233;SDS011;75981;42.636;23.376;2024-03-08T00:20:41;14.10;;;7.65;;
70233;SDS011;75981;42.636;23.376;2024-03-08T00:23:07;13.50;;;7.15;;
70233;SDS011;75981;42.636;23.376;2024-03-08T00:25:32;14.32;;;7.40;;
70233;SDS011;75981;42.636;23.376;2024-03-08T00:27:59;16.83;;;8.02;;
70233;SDS011;75981;42.636;23.376;2024-03-08T00:30:24;14.35;;;7.93;;
70233;SDS011;75981;42.636;23.376;2024-03-08T00:32:50;14.15;;;8.10;;
70233;SDS011;75981;42.636;23.376;2024-03-08T00:35:16;14.45;;;7.95;;
70233;SDS011;75981;42.636;23.376;2024-03-08T00:37:41;16.63;;;8.65;;
70233;SDS011;75981;42.636;23.376;2024-03-08T00:40:07;16.10;;;8.55;;
70233;SDS011;75981;42.636;23.376;2024-03-08T00:42:34;16.77;;;8.60;;
70233;SDS011;75981;42.636;23.376;2024-03-08T00:45:00;17.38;;;8.68;;
70233;SDS011;75981;42.636;23.376;2024-03-08T00:47:26;16.15;;;9.02;;
70233;SDS011;75981;42.636;23.376;2024-03-08T00:49:52;16.58;;;9.40;;
70233;SDS011;75981;42.636;23.376;2024-03-08T00:52:18;17.65;;;8.82;;
70233;SDS011;75981;42.636;23.376;2024-03-08T00:54:44;16.95;;;8.93;;
70233;SDS011;75981;42.636;23.376;2024-03-08T00:57:09;18.23;;;9.55;;
70233;SDS011;75981;42.636;23.376;2024-03-08T00:59:37;17.13;;;9.02;;
70233;SDS011;75981;42.636;23.376;2024-03-08T01:02:03;18.10;;;9.15;;
70233;SDS011;75981;42.636;23.376;2024-03-08T01:04:28;15.60;;;8.55;;
70233;SDS011;75981;42.636;23.376;2024-03-08T01:06:57;16.90;;;9.35;;
70233;SDS011;75981;42.636;23.376;2024-03-08T01:09:23;14.50;;;7.75;;
70233;SDS011;75981;42.636;23.376;2024-03-08T01:11:49;13.30;;;7.30;;
70233;SDS011;75981;42.636;23.376;2024-03-08T01:14:15;13.25;;;7.40;;
70233;SDS011;75981;42.636;23.376;2024-03-08T01:16:41;13.50;;;7.20;;
70233;SDS011;75981;42.636;23.376;2024-03-08T01:19:06;12.40;;;6.45;;
70233;SDS011;75981;42.636;23.376;2024-03-08T01:21:32;11.60;;;5.95;;
70233;SDS011;75981;42.636;23.376;2024-03-08T01:23:57;12.52;;;6.47;;
70233;SDS011;75981;42.636;23.376;2024-03-08T01:26:22;11.88;;;6.22;;
70233;SDS011;75981;42.636;23.376;2024-03-08T01:28:48;12.57;;;6.10;;
70233;SDS011;75981;42.636;23.376;2024-03-08T01:31:14;12.00;;;6.32;;
70233;SDS011;75981;42.636;23.376;2024-03-08T01:33:41;10.48;;;5.55;;
70233;SDS011;75981;42.636;23.376;2024-03-08T01:36:07;10.07;;;4.82;;
70233;SDS011;75981;42.636;23.376;2024-03-08T01:38:33;10.20;;;5.00;;
70233;SDS011;75981;42.636;23.376;2024-03-08T01:40:58;8.25;;;4.20;;
70233;SDS011;75981;42.636;23.376;2024-03-08T01:43:27;8.10;;;3.67;;
70233;SDS011;75981;42.636;23.376;2024-03-08T01:45:54;8.05;;;3.60;;
70233;SDS011;75981;42.636;23.376;2024-03-08T01:48:27;7.25;;;3.20;;
70233;SDS011;75981;42.636;23.376;2024-03-08T01:50:54;7.10;;;3.10;;
70233;SDS011;75981;42.636;23.376;2024-03-08T01:53:21;7.40;;;3.10;;
70233;SDS011;75981;42.636;23.376;2024-03-08T01:55:48;7.75;;;3.38;;
70233;SDS011;75981;42.636;23.376;2024-03-08T01:58:15;7.55;;;3.10;;
70233;SDS011;75981;42.636;23.376;2024-03-08T02:00:44;7.55;;;3.53;;
70233;SDS011;75981;42.636;23.376;2024-03-08T02:03:11;7.28;;;3.13;;
70233;SDS011;75981;42.636;23.376;2024-03-08T02:05:37;6.95;;;3.20;;
70233;SDS011;75981;42.636;23.376;2024-03-08T02:08:05;5.57;;;2.50;;
70233;SDS011;75981;42.636;23.376;2024-03-08T02:10:38;6.57;;;2.53;;
70233;SDS011;75981;42.636;23.376;2024-03-08T02:13:04;5.82;;;2.47;;
70233;SDS011;75981;42.636;23.376;2024-03-08T02:15:49;4.15;;;2.13;;
70233;SDS011;75981;42.636;23.376;2024-03-08T02:18:14;5.82;;;2.90;;
70233;SDS011;75981;42.636;23.376;2024-03-08T02:20:40;5.45;;;2.50;;
70233;SDS011;75981;42.636;23.376;2024-03-08T02:23:06;5.03;;;2.20;;
70233;SDS011;75981;42.636;23.376;2024-03-08T02:25:32;5.57;;;2.50;;
70233;SDS011;75981;42.636;23.376;2024-03-08T02:27:57;5.05;;;2.22;;
70233;SDS011;75981;42.636;23.376;2024-03-08T02:30:23;4.78;;;2.30;;
70233;SDS011;75981;42.636;23.376;2024-03-08T02:32:48;5.07;;;2.25;;
70233;SDS011;75981;42.636;23.376;2024-03-08T02:35:14;5.53;;;2.55;;
70233;SDS011;75981;42.636;23.376;2024-03-08T02:37:39;5.53;;;2.47;;
70233;SDS011;75981;42.636;23.376;2024-03-08T02:40:05;5.13;;;2.50;;
70233;SDS011;75981;42.636;23.376;2024-03-08T02:42:32;4.50;;;2.10;;
70233;SDS011;75981;42.636;23.376;2024-03-08T02:44:57;4.90;;;2.42;;
70233;SDS011;75981;42.636;23.376;2024-03-08T02:47:23;5.68;;;2.60;;
70233;SDS011;75981;42.636;23.376;2024-03-08T02:49:48;5.95;;;2.50;;
70233;SDS011;75981;42.636;23.376;2024-03-08T02:52:15;6.10;;;2.70;;
70233;SDS011;75981;42.636;23.376;2024-03-08T02:54:41;6.40;;;2.53;;
70233;SDS011;75981;42.636;23.376;2024-03-08T02:57:06;6.00;;;2.63;;
70233;SDS011;75981;42.636;23.376;2024-03-08T02:59:32;5.53;;;2.53;;
70233;SDS011;75981;42.636;23.376;2024-03-08T03:01:58;5.63;;;2.70;;
70233;SDS011;75981;42.636;23.376;2024-03-08T03:04:23;4.28;;;2.13;;
70233;SDS011;75981;42.636;23.376;2024-03-08T03:06:49;4.07;;;2.00;;
70233;SDS011;75981;42.636;23.376;2024-03-08T03:09:14;4.32;;;2.15;;
70233;SDS011;75981;42.636;23.376;2024-03-08T03:11:44;4.22;;;2.10;;
70233;SDS011;75981;42.636;23.376;2024-03-08T03:14:09;5.68;;;2.38;;
70233;SDS011;75981;42.636;23.376;2024-03-08T03:16:35;5.03;;;2.30;;
70233;SDS011;75981;42.636;23.376;2024-03-08T03:19:00;4.32;;;2.08;;
70233;SDS011;75981;42.636;23.376;2024-03-08T03:21:28;5.45;;;2.20;;
70233;SDS011;75981;42.636;23.376;2024-03-08T03:23:56;3.97;;;2.03;;
70233;SDS011;75981;42.636;23.376;2024-03-08T03:26:24;4.57;;;2.22;;
70233;SDS011;75981;42.636;23.376;2024-03-08T03:28:49;4.00;;;2.13;;
70233;SDS011;75981;42.636;23.376;2024-03-08T03:31:14;5.28;;;2.30;;
70233;SDS011;75981;42.636;23.376;2024-03-08T03:33:40;6.05;;;2.50;;
70233;SDS011;75981;42.636;23.376;2024-03-08T03:36:05;5.10;;;2.35;;
70233;SDS011;75981;42.636;23.376;2024-03-08T03:38:33;5.68;;;2.58;;
70233;SDS011;75981;42.636;23.376;2024-03-08T03:40:59;5.93;;;2.45;;
70233;SDS011;75981;42.636;23.376;2024-03-08T03:43:32;4.68;;;2.25;;
70233;SDS011;75981;42.636;23.376;2024-03-08T03:45:57;3.67;;;1.90;;
70233;SDS011;75981;42.636;23.376;2024-03-08T03:48:23;3.83;;;1.92;;
70233;SDS011;75981;42.636;23.376;2024-03-08T03:50:48;4.05;;;1.80;;
70233;SDS011;75981;42.636;23.376;2024-03-08T03:53:15;3.03;;;1.83;;
70233;SDS011;75981;42.636;23.376;2024-03-08T03:55:41;4.80;;;1.98;;
70233;SDS011;75981;42.636;23.376;2024-03-08T03:58:06;4.22;;;1.80;;
70233;SDS011;75981;42.636;23.376;2024-03-08T04:00:32;4.47;;;1.80;;
70233;SDS011;75981;42.636;23.376;2024-03-08T04:02:57;3.58;;;1.90;;
70233;SDS011;75981;42.636;23.376;2024-03-08T04:05:25;2.55;;;1.60;;
70233;SDS011;75981;42.636;23.376;2024-03-08T04:07:51;4.53;;;1.75;;
70233;SDS011;75981;42.636;23.376;2024-03-08T04:10:16;2.97;;;1.58;;
70233;SDS011;75981;42.636;23.376;2024-03-08T04:12:42;2.90;;;1.50;;
70233;SDS011;75981;42.636;23.376;2024-03-08T04:15:07;2.00;;;1.50;;
70233;SDS011;75981;42.636;23.376;2024-03-08T04:17:33;3.22;;;1.60;;
70233;SDS011;75981;42.636;23.376;2024-03-08T04:20:05;2.83;;;1.55;;
70233;SDS011;75981;42.636;23.376;2024-03-08T04:22:38;2.20;;;1.60;;
70233;SDS011;75981;42.636;23.376;2024-03-08T04:25:04;3.60;;;1.73;;
70233;SDS011;75981;42.636;23.376;2024-03-08T04:27:31;3.60;;;1.73;;
70233;SDS011;75981;42.636;23.376;2024-03-08T04:29:57;3.17;;;1.80;;
70233;SDS011;75981;42.636;23.376;2024-03-08T04:32:24;3.15;;;1.80;;
70233;SDS011;75981;42.636;23.376;2024-03-08T04:34:49;3.10;;;1.80;;
70233;SDS011;75981;42.636;23.376;2024-03-08T04:37:15;3.25;;;1.70;;
70233;SDS011;75981;42.636;23.376;2024-03-08T04:39:43;3.75;;;1.80;;
70233;SDS011;75981;42.636;23.376;2024-03-08T04:42:08;4.30;;;1.80;;
70233;SDS011;75981;42.636;23.376;2024-03-08T04:44:36;5.35;;;2.40;;
70233;SDS011;75981;42.636;23.376;2024-03-08T04:47:05;4.85;;;2.40;;
70233;SDS011;75981;42.636;23.376;2024-03-08T04:49:33;5.33;;;2.40;;
70233;SDS011;75981;42.636;23.376;2024-03-08T04:52:02;4.88;;;2.20;;
70233;SDS011;75981;42.636;23.376;2024-03-08T04:54:29;4.43;;;1.90;;
70233;SDS011;75981;42.636;23.376;2024-03-08T04:56:55;6.95;;;2.20;;
70233;SDS011;75981;42.636;23.376;2024-03-08T04:59:20;5.07;;;2.20;;
70233;SDS011;75981;42.636;23.376;2024-03-08T05:01:46;5.10;;;2.30;;
70233;SDS011;75981;42.636;23.376;2024-03-08T05:04:12;4.35;;;2.05;;
70233;SDS011;75981;42.636;23.376;2024-03-08T05:06:38;4.75;;;2.10;;
70233;SDS011;75981;42.636;23.376;2024-03-08T05:09:03;3.92;;;1.90;;
70233;SDS011;75981;42.636;23.376;2024-03-08T05:11:38;3.00;;;1.70;;
70233;SDS011;75981;42.636;23.376;2024-03-08T05:14:10;4.25;;;1.92;;
70233;SDS011;75981;42.636;23.376;2024-03-08T05:16:37;3.58;;;1.92;;
70233;SDS011;75981;42.636;23.376;2024-03-08T05:19:03;3.97;;;1.80;;
70233;SDS011;75981;42.636;23.376;2024-03-08T05:21:28;4.47;;;1.92;;
70233;SDS011;75981;42.636;23.376;2024-03-08T05:23:54;4.22;;;2.10;;
70233;SDS011;75981;42.636;23.376;2024-03-08T05:26:19;5.28;;;2.33;;
70233;SDS011;75981;42.636;23.376;2024-03-08T05:28:45;7.85;;;3.20;;
70233;SDS011;75981;42.636;23.376;2024-03-08T05:31:17;5.68;;;2.63;;
70233;SDS011;75981;42.636;23.376;2024-03-08T05:33:45;6.80;;;2.85;;
70233;SDS011;75981;42.636;23.376;2024-03-08T05:36:11;6.90;;;2.78;;
70233;SDS011;75981;42.636;23.376;2024-03-08T05:38:39;6.40;;;2.90;;
70233;SDS011;75981;42.636;23.376;2024-03-08T05:43:32;9.48;;;4.20;;
70233;SDS011;75981;42.636;23.376;2024-03-08T05:45:58;8.30;;;3.63;;
70233;SDS011;75981;42.636;23.376;2024-03-08T05:48:23;8.63;;;3.95;;
70233;SDS011;75981;42.636;23.376;2024-03-08T05:50:50;9.70;;;4.30;;
70233;SDS011;75981;42.636;23.376;2024-03-08T05:53:18;10.20;;;4.50;;
70233;SDS011;75981;42.636;23.376;2024-03-08T05:55:43;9.10;;;4.10;;
70233;SDS011;75981;42.636;23.376;2024-03-08T05:58:10;9.68;;;4.43;;
70233;SDS011;75981;42.636;23.376;2024-03-08T06:00:36;8.70;;;4.30;;
70233;SDS011;75981;42.636;23.376;2024-03-08T06:03:02;11.43;;;4.97;;
70233;SDS011;75981;42.636;23.376;2024-03-08T06:05:28;10.82;;;4.95;;
70233;SDS011;75981;42.636;23.376;2024-03-08T06:07:53;9.13;;;4.45;;
70233;SDS011;75981;42.636;23.376;2024-03-08T06:10:21;10.52;;;5.30;;
70233;SDS011;75981;42.636;23.376;2024-03-08T06:12:47;12.80;;;5.85;;
70233;SDS011;75981;42.636;23.376;2024-03-08T06:15:12;12.45;;;6.00;;
70233;SDS011;75981;42.636;23.376;2024-03-08T06:17:41;12.63;;;5.10;;
70233;SDS011;75981;42.636;23.376;2024-03-08T06:20:07;9.10;;;4.35;;
70233;SDS011;75981;42.636;23.376;2024-03-08T06:22:41;9.43;;;4.60;;
70233;SDS011;75981;42.636;23.376;2024-03-08T06:25:11;9.82;;;4.75;;
70233;SDS011;75981;42.636;23.376;2024-03-08T06:27:43;10.05;;;4.70;;
70233;SDS011;75981;42.636;23.376;2024-03-08T06:30:11;10.60;;;5.40;;
70233;SDS011;75981;42.636;23.376;2024-03-08T06:32:37;10.95;;;5.20;;
70233;SDS011;75981;42.636;23.376;2024-03-08T06:35:07;11.82;;;5.45;;
70233;SDS011;75981;42.636;23.376;2024-03-08T06:37:35;11.82;;;5.32;;
70233;SDS011;75981;42.636;23.376;2024-03-08T06:40:01;12.35;;;5.70;;
70233;SDS011;75981;42.636;23.376;2024-03-08T06:42:28;12.00;;;5.72;;
70233;SDS011;75981;42.636;23.376;2024-03-08T06:44:54;11.60;;;5.55;;
70233;SDS011;75981;42.636;23.376;2024-03-08T06:47:24;13.55;;;6.13;;
70233;SDS011;75981;42.636;23.376;2024-03-08T06:49:51;12.15;;;6.38;;
70233;SDS011;75981;42.636;23.376;2024-03-08T06:52:19;12.25;;;5.20;;
70233;SDS011;75981;42.636;23.376;2024-03-08T06:54:51;11.23;;;5.05;;
70233;SDS011;75981;42.636;23.376;2024-03-08T06:57:19;11.40;;;4.88;;
70233;SDS011;75981;42.636;23.376;2024-03-08T06:59:48;11.63;;;5.55;;
70233;SDS011;75981;42.636;23.376;2024-03-08T07:02:13;10.57;;;5.55;;
70233;SDS011;75981;42.636;23.376;2024-03-08T07:04:39;14.38;;;6.00;;
70233;SDS011;75981;42.636;23.376;2024-03-08T07:07:04;10.15;;;5.00;;
70233;SDS011;75981;42.636;23.376;2024-03-08T07:09:30;9.48;;;4.63;;
70233;SDS011;75981;42.636;23.376;2024-03-08T07:11:56;12.40;;;5.25;;
70233;SDS011;75981;42.636;23.376;2024-03-08T07:14:27;12.35;;;6.13;;
70233;SDS011;75981;42.636;23.376;2024-03-08T07:16:52;13.95;;;5.90;;
70233;SDS011;75981;42.636;23.376;2024-03-08T07:19:18;10.82;;;5.45;;
70233;SDS011;75981;42.636;23.376;2024-03-08T07:21:44;15.25;;;5.28;;
70233;SDS011;75981;42.636;23.376;2024-03-08T07:24:10;11.77;;;4.97;;
70233;SDS011;75981;42.636;23.376;2024-03-08T07:26:41;12.00;;;5.70;;
70233;SDS011;75981;42.636;23.376;2024-03-08T07:29:07;10.55;;;5.43;;
70233;SDS011;75981;42.636;23.376;2024-03-08T07:31:33;13.07;;;5.25;;
70233;SDS011;75981;42.636;23.376;2024-03-08T07:34:20;11.00;;;6.15;;
70233;SDS011;75981;42.636;23.376;2024-03-08T07:36:49;10.48;;;5.50;;
70233;SDS011;75981;42.636;23.376;2024-03-08T07:39:31;10.77;;;5.45;;
70233;SDS011;75981;42.636;23.376;2024-03-08T07:42:05;10.30;;;5.50;;
70233;SDS011;75981;42.636;23.376;2024-03-08T07:44:30;10.05;;;4.88;;
70233;SDS011;75981;42.636;23.376;2024-03-08T07:46:57;9.73;;;4.43;;
70233;SDS011;75981;42.636;23.376;2024-03-08T07:49:42;9.32;;;4.25;;
70233;SDS011;75981;42.636;23.376;2024-03-08T07:52:12;8.70;;;4.13;;
70233;SDS011;75981;42.636;23.376;2024-03-08T07:55:01;9.23;;;3.35;;
70233;SDS011;75981;42.636;23.376;2024-03-08T07:57:30;11.07;;;5.05;;
70233;SDS011;75981;42.636;23.376;2024-03-08T07:59:56;10.82;;;4.25;;
70233;SDS011;75981;42.636;23.376;2024-03-08T08:02:22;9.90;;;4.53;;
70233;SDS011;75981;42.636;23.376;2024-03-08T08:04:47;12.70;;;4.90;;
70233;SDS011;75981;42.636;23.376;2024-03-08T08:07:13;12.02;;;5.20;;
70233;SDS011;75981;42.636;23.376;2024-03-08T08:09:39;11.65;;;4.90;;
70233;SDS011;75981;42.636;23.376;2024-03-08T08:12:07;9.85;;;4.10;;
70233;SDS011;75981;42.636;23.376;2024-03-08T08:14:36;9.55;;;4.45;;
70233;SDS011;75981;42.636;23.376;2024-03-08T08:17:06;14.77;;;4.28;;
70233;SDS011;75981;42.636;23.376;2024-03-08T08:19:33;9.80;;;4.75;;
70233;SDS011;75981;42.636;23.376;2024-03-08T08:22:00;17.13;;;4.50;;
70233;SDS011;75981;42.636;23.376;2024-03-08T08:24:27;11.77;;;4.85;;
70233;SDS011;75981;42.636;23.376;2024-03-08T08:26:53;9.90;;;4.65;;
70233;SDS011;75981;42.636;23.376;2024-03-08T08:29:18;17.73;;;5.32;;
70233;SDS011;75981;42.636;23.376;2024-03-08T08:31:45;12.35;;;5.15;;
70233;SDS011;75981;42.636;23.376;2024-03-08T08:34:11;12.70;;;5.10;;
70233;SDS011;75981;42.636;23.376;2024-03-08T08:36:37;11.73;;;4.55;;
70233;SDS011;75981;42.636;23.376;2024-03-08T08:39:04;11.73;;;5.13;;
70233;SDS011;75981;42.636;23.376;2024-03-08T08:41:36;10.10;;;4.55;;
70233;SDS011;75981;42.636;23.376;2024-03-08T08:44:01;11.75;;;4.80;;
70233;SDS011;75981;42.636;23.376;2024-03-08T08:46:27;10.85;;;4.65;;
70233;SDS011;75981;42.636;23.376;2024-03-08T08:48:53;10.68;;;4.68;;
70233;SDS011;75981;42.636;23.376;2024-03-08T08:51:19;11.45;;;4.78;;
70233;SDS011;75981;42.636;23.376;2024-03-08T08:53:44;9.98;;;4.63;;
70233;SDS011;75981;42.636;23.376;2024-03-08T08:56:12;14.63;;;5.03;;
70233;SDS011;75981;42.636;23.376;2024-03-08T08:58:41;13.35;;;4.60;;
70233;SDS011;75981;42.636;23.376;2024-03-08T09:01:10;12.27;;;4.35;;
70233;SDS011;75981;42.636;23.376;2024-03-08T09:03:36;9.52;;;4.35;;
70233;SDS011;75981;42.636;23.376;2024-03-08T09:06:02;8.98;;;4.25;;
70233;SDS011;75981;42.636;23.376;2024-03-08T09:08:35;10.00;;;4.60;;
70233;SDS011;75981;42.636;23.376;2024-03-08T09:11:00;15.25;;;4.93;;
70233;SDS011;75981;42.636;23.376;2024-03-08T09:13:26;17.83;;;4.90;;
70233;SDS011;75981;42.636;23.376;2024-03-08T09:15:51;10.63;;;4.07;;
70233;SDS011;75981;42.636;23.376;2024-03-08T09:18:17;12.75;;;5.55;;
70233;SDS011;75981;42.636;23.376;2024-03-08T09:20:44;11.88;;;4.20;;
70233;SDS011;75981;42.636;23.376;2024-03-08T09:23:09;18.10;;;5.18;;
70233;SDS011;75981;42.636;23.376;2024-03-08T09:25:35;9.52;;;3.53;;
70233;SDS011;75981;42.636;23.376;2024-03-08T09:28:00;16.23;;;4.00;;
70233;SDS011;75981;42.636;23.376;2024-03-08T09:30:26;11.43;;;3.70;;
70233;SDS011;75981;42.636;23.376;2024-03-08T09:32:51;6.82;;;3.10;;
70233;SDS011;75981;42.636;23.376;2024-03-08T09:35:16;9.38;;;3.05;;
70233;SDS011;75981;42.636;23.376;2024-03-08T09:37:42;6.70;;;3.10;;
70233;SDS011;75981;42.636;23.376;2024-03-08T09:40:07;8.20;;;3.80;;
70233;SDS011;75981;42.636;23.376;2024-03-08T09:42:37;9.05;;;3.63;;
70233;SDS011;75981;42.636;23.376;2024-03-08T09:45:04;8.75;;;3.50;;
70233;SDS011;75981;42.636;23.376;2024-03-08T09:47:35;8.88;;;3.50;;
70233;SDS011;75981;42.636;23.376;2024-03-08T09:50:05;15.23;;;3.90;;
70233;SDS011;75981;42.636;23.376;2024-03-08T09:52:41;9.77;;;2.72;;
70233;SDS011;75981;42.636;23.376;2024-03-08T09:55:09;9.90;;;3.25;;
70233;SDS011;75981;42.636;23.376;2024-03-08T09:57:36;7.38;;;3.22;;
70233;SDS011;75981;42.636;23.376;2024-03-08T10:00:03;12.88;;;3.78;;
70233;SDS011;75981;42.636;23.376;2024-03-08T10:02:50;7.90;;;3.55;;
70233;SDS011;75981;42.636;23.376;2024-03-08T10:05:17;10.82;;;3.17;;
70233;SDS011;75981;42.636;23.376;2024-03-08T10:07:43;7.90;;;3.00;;
70233;SDS011;75981;42.636;23.376;2024-03-08T10:10:09;7.15;;;2.95;;
70233;SDS011;75981;42.636;23.376;2024-03-08T10:12:37;7.75;;;3.03;;
70233;SDS011;75981;42.636;23.376;2024-03-08T10:15:05;6.38;;;2.70;;
70233;SDS011;75981;42.636;23.376;2024-03-08T10:17:34;6.65;;;2.80;;
70233;SDS011;75981;42.636;23.376;2024-03-08T10:20:00;8.32;;;2.95;;
70233;SDS011;75981;42.636;23.376;2024-03-08T10:22:26;9.50;;;2.95;;
70233;SDS011;75981;42.636;23.376;2024-03-08T10:24:51;7.68;;;2.72;;
70233;SDS011;75981;42.636;23.376;2024-03-08T10:27:17;8.38;;;3.30;;
70233;SDS011;75981;42.636;23.376;2024-03-08T10:29:42;12.07;;;3.40;;
70233;SDS011;75981;42.636;23.376;2024-03-08T10:32:12;13.05;;;3.22;;
70233;SDS011;75981;42.636;23.376;2024-03-08T10:34:38;8.73;;;2.97;;
70233;SDS011;75981;42.636;23.376;2024-03-08T10:37:04;6.47;;;3.05;;
70233;SDS011;75981;42.636;23.376;2024-03-08T10:39:37;12.88;;;3.25;;
70233;SDS011;75981;42.636;23.376;2024-03-08T10:42:03;9.25;;;3.13;;
70233;SDS011;75981;42.636;23.376;2024-03-08T10:47:00;12.02;;;3.10;;
70233;SDS011;75981;42.636;23.376;2024-03-08T10:49:28;12.35;;;4.13;;
70233;SDS011;75981;42.636;23.376;2024-03-08T10:51:59;8.68;;;3.28;;
70233;SDS011;75981;42.636;23.376;2024-03-08T10:54:28;6.93;;;2.92;;
70233;SDS011;75981;42.636;23.376;2024-03-08T10:56:56;9.27;;;2.90;;
70233;SDS011;75981;42.636;23.376;2024-03-08T10:59:23;11.30;;;3.03;;
70233;SDS011;75981;42.636;23.376;2024-03-08T11:01:52;9.18;;;2.83;;
70233;SDS011;75981;42.636;23.376;2024-03-08T11:04:18;6.22;;;2.50;;
70233;SDS011;75981;42.636;23.376;2024-03-08T11:09:29;9.52;;;2.70;;
70233;SDS011;75981;42.636;23.376;2024-03-08T11:14:44;6.03;;;2.47;;
70233;SDS011;75981;42.636;23.376;2024-03-08T11:17:20;6.88;;;2.40;;
70233;SDS011;75981;42.636;23.376;2024-03-08T11:20:12;10.25;;;2.60;;
70233;SDS011;75981;42.636;23.376;2024-03-08T11:22:41;11.50;;;3.20;;
70233;SDS011;75981;42.636;23.376;2024-03-08T11:25:39;7.38;;;2.63;;
70233;SDS011;75981;42.636;23.376;2024-03-08T11:30:45;5.40;;;2.28;;
70233;SDS011;75981;42.636;23.376;2024-03-08T11:33:34;7.03;;;2.97;;
70233;SDS011;75981;42.636;23.376;2024-03-08T11:38:45;13.27;;;6.90;;
70233;SDS011;75981;42.636;23.376;2024-03-08T11:41:14;16.00;;;7.97;;
70233;SDS011;75981;42.636;23.376;2024-03-08T11:43:45;18.50;;;7.72;;
70233;SDS011;75981;42.636;23.376;2024-03-08T11:46:11;19.60;;;10.02;;
70233;SDS011;75981;42.636;23.376;2024-03-08T11:48:38;10.57;;;6.07;;
70233;SDS011;75981;42.636;23.376;2024-03-08T11:53:33;8.13;;;2.45;;
70233;SDS011;75981;42.636;23.376;2024-03-08T11:56:05;5.60;;;2.47;;
70233;SDS011;75981;42.636;23.376;2024-03-08T11:58:32;15.98;;;2.33;;
70233;SDS011;75981;42.636;23.376;2024-03-08T12:01:07;5.10;;;2.10;;
70233;SDS011;75981;42.636;23.376;2024-03-08T12:06:03;6.00;;;2.42;;
70233;SDS011;75981;42.636;23.376;2024-03-08T12:08:32;5.90;;;2.47;;
70233;SDS011;75981;42.636;23.376;2024-03-08T12:10:57;5.73;;;2.67;;
70233;SDS011;75981;42.636;23.376;2024-03-08T12:13:26;4.97;;;2.25;;
70233;SDS011;75981;42.636;23.376;2024-03-08T12:15:55;4.50;;;2.20;;
70233;SDS011;75981;42.636;23.376;2024-03-08T12:18:24;5.18;;;2.63;;
70233;SDS011;75981;42.636;23.376;2024-03-08T12:20:50;6.13;;;2.70;;
70233;SDS011;75981;42.636;23.376;2024-03-08T12:23:15;5.13;;;2.40;;
70233;SDS011;75981;42.636;23.376;2024-03-08T12:25:41;6.63;;;2.45;;
70233;SDS011;75981;42.636;23.376;2024-03-08T12:28:07;9.63;;;2.67;;
70233;SDS011;75981;42.636;23.376;2024-03-08T12:30:50;8.07;;;2.42;;
70233;SDS011;75981;42.636;23.376;2024-03-08T12:33:19;5.63;;;2.30;;
70233;SDS011;75981;42.636;23.376;2024-03-08T12:35:51;7.18;;;2.30;;
70233;SDS011;75981;42.636;23.376;2024-03-08T12:38:23;5.47;;;2.47;;
70233;SDS011;75981;42.636;23.376;2024-03-08T12:40:56;6.63;;;2.53;;
70233;SDS011;75981;42.636;23.376;2024-03-08T12:43:24;8.15;;;2.40;;
70233;SDS011;75981;42.636;23.376;2024-03-08T12:45:49;9.27;;;2.80;;
70233;SDS011;75981;42.636;23.376;2024-03-08T12:48:15;9.13;;;2.83;;
70233;SDS011;75981;42.636;23.376;2024-03-08T12:50:41;11.65;;;2.80;;
70233;SDS011;75981;42.636;23.376;2024-03-08T12:55:36;8.55;;;2.88;;
70233;SDS011;75981;42.636;23.376;2024-03-08T12:58:01;5.65;;;2.40;;
70233;SDS011;75981;42.636;23.376;2024-03-08T13:00:27;8.30;;;2.20;;
70233;SDS011;75981;42.636;23.376;2024-03-08T13:02:53;10.35;;;2.65;;
70233;SDS011;75981;42.636;23.376;2024-03-08T13:05:18;6.50;;;2.90;;
70233;SDS011;75981;42.636;23.376;2024-03-08T13:07:45;6.85;;;2.95;;
70233;SDS011;75981;42.636;23.376;2024-03-08T13:10:14;5.03;;;2.30;;
70233;SDS011;75981;42.636;23.376;2024-03-08T13:12:41;6.97;;;2.50;;
70233;SDS011;75981;42.636;23.376;2024-03-08T13:15:08;8.02;;;2.60;;
70233;SDS011;75981;42.636;23.376;2024-03-08T13:17:35;5.53;;;2.60;;
70233;SDS011;75981;42.636;23.376;2024-03-08T13:20:01;7.10;;;2.40;;
70233;SDS011;75981;42.636;23.376;2024-03-08T13:22:30;6.17;;;2.43;;
70233;SDS011;75981;42.636;23.376;2024-03-08T13:24:55;18.65;;;10.40;;
70233;SDS011;75981;42.636;23.376;2024-03-08T13:27:21;31.90;;;15.15;;
70233;SDS011;75981;42.636;23.376;2024-03-08T13:29:50;42.30;;;19.25;;
70233;SDS011;75981;42.636;23.376;2024-03-08T13:32:15;10.70;;;4.55;;
70233;SDS011;75981;42.636;23.376;2024-03-08T13:34:45;8.95;;;3.50;;
70233;SDS011;75981;42.636;23.376;2024-03-08T13:37:16;5.80;;;2.40;;
70233;SDS011;75981;42.636;23.376;2024-03-08T13:39:42;8.98;;;2.67;;
70233;SDS011;75981;42.636;23.376;2024-03-08T13:42:11;3.83;;;2.03;;
70233;SDS011;75981;42.636;23.376;2024-03-08T13:44:47;8.98;;;2.50;;
70233;SDS011;75981;42.636;23.376;2024-03-08T13:47:16;10.48;;;2.35;;
70233;SDS011;75981;42.636;23.376;2024-03-08T13:49:42;5.38;;;2.60;;
70233;SDS011;75981;42.636;23.376;2024-03-08T13:52:09;4.38;;;2.10;;
70233;SDS011;75981;42.636;23.376;2024-03-08T13:54:35;5.25;;;2.42;;
70233;SDS011;75981;42.636;23.376;2024-03-08T13:57:01;3.92;;;2.13;;
70233;SDS011;75981;42.636;23.376;2024-03-08T13:59:29;7.10;;;2.50;;
70233;SDS011;75981;42.636;23.376;2024-03-08T14:01:55;6.60;;;2.50;;
70233;SDS011;75981;42.636;23.376;2024-03-08T14:04:22;7.13;;;2.60;;
70233;SDS011;75981;42.636;23.376;2024-03-08T14:06:47;7.65;;;2.72;;
70233;SDS011;75981;42.636;23.376;2024-03-08T14:09:14;9.55;;;2.40;;
70233;SDS011;75981;42.636;23.376;2024-03-08T14:11:45;4.57;;;2.15;;
70233;SDS011;75981;42.636;23.376;2024-03-08T14:14:11;7.32;;;2.55;;
70233;SDS011;75981;42.636;23.376;2024-03-08T14:16:39;7.43;;;2.97;;
70233;SDS011;75981;42.636;23.376;2024-03-08T14:19:05;8.40;;;2.15;;
70233;SDS011;75981;42.636;23.376;2024-03-08T14:21:34;7.38;;;2.40;;
70233;SDS011;75981;42.636;23.376;2024-03-08T14:23:59;11.17;;;3.20;;
70233;SDS011;75981;42.636;23.376;2024-03-08T14:26:25;8.40;;;2.78;;
70233;SDS011;75981;42.636;23.376;2024-03-08T14:28:51;5.47;;;2.28;;
70233;SDS011;75981;42.636;23.376;2024-03-08T14:31:19;7.20;;;2.30;;
70233;SDS011;75981;42.636;23.376;2024-03-08T14:33:50;4.47;;;2.10;;
70233;SDS011;75981;42.636;23.376;2024-03-08T14:36:17;6.40;;;2.22;;
70233;SDS011;75981;42.636;23.376;2024-03-08T14:38:45;10.20;;;3.33;;
70233;SDS011;75981;42.636;23.376;2024-03-08T14:41:13;13.55;;;2.90;;
70233;SDS011;75981;42.636;23.376;2024-03-08T14:43:44;8.75;;;2.85;;
70233;SDS011;75981;42.636;23.376;2024-03-08T14:46:18;8.20;;;2.67;;
70233;SDS011;75981;42.636;23.376;2024-03-08T14:48:49;5.55;;;2.45;;
70233;SDS011;75981;42.636;23.376;2024-03-08T14:51:16;8.75;;;3.40;;
70233;SDS011;75981;42.636;23.376;2024-03-08T14:53:44;7.97;;;3.25;;